Kezdőlap
METAR-TAF:

METAR-TAF

Repülőterek :

Puerto Suárez, Bolívia

földrajzi szélesség: 18-59S, földrajzi hosszúság: 057-49W, magasság: 134 m

Jelenlegi meteorológiai megfigyelések

A jelentés 42 perccel ezelõtt készült, 14:00 UTC
Szélcsend
Hőmérséklet 31°C
Páratartalom 55%
Légköri nyomás 1014 hPa
Látótávolság: 7000 m
Kevés felhő 7000 lábon

METAR: SLPS 181400Z 00000KT 7000 FEW070 31/21 Q1014

Idő: 10:42 (14:42 UTC)


TAF: hiányzik

Meteorológiai megfigyelések és előrejelzések több, mint 4000 repülőtéren (METAR és TAF jelentéseket).

A térképen piros és sárga pontok jelzik az elérhető meteorológiai állomásokat.

Mozgassa az egeret a pont fölött, hogy megjelenjen az állomás neve.

Azután kattintson az időjárási megfigyelések és előrejelzések megtekintéséhez.

A térkép megváltoztatása: kattintson a fekete keresztel jelölt zöld gombra ráközelítéshez, a vonallal jelölt zöld gombra távolításhoz, vagy a zöld nyilakra a szomszédos térképek eléréséhez.


METAR-TAF: